sensor_id;sensor_type;location;lat;lon;timestamp;temperature;humidity
5218;DHT22;26539;51.064;6.346;2023-12-14T00:01:17;10.00;1.00
5218;DHT22;26539;51.064;6.346;2023-12-14T00:03:43;10.00;1.00
5218;DHT22;26539;51.064;6.346;2023-12-14T00:06:12;10.10;1.00
5218;DHT22;26539;51.064;6.346;2023-12-14T00:08:38;10.10;1.00
5218;DHT22;26539;51.064;6.346;2023-12-14T00:13:30;10.10;1.00
5218;DHT22;26539;51.064;6.346;2023-12-14T00:15:56;10.10;1.00
5218;DHT22;26539;51.064;6.346;2023-12-14T00:18:21;10.10;1.00
5218;DHT22;26539;51.064;6.346;2023-12-14T00:20:47;10.10;1.00
5218;DHT22;26539;51.064;6.346;2023-12-14T00:23:13;10.10;1.00
5218;DHT22;26539;51.064;6.346;2023-12-14T00:25:39;10.10;1.00
5218;DHT22;26539;51.064;6.346;2023-12-14T00:28:04;10.10;1.00
5218;DHT22;26539;51.064;6.346;2023-12-14T00:30:30;10.10;1.00
5218;DHT22;26539;51.064;6.346;2023-12-14T00:32:55;10.10;1.00
5218;DHT22;26539;51.064;6.346;2023-12-14T00:35:21;10.10;1.00
5218;DHT22;26539;51.064;6.346;2023-12-14T00:37:46;10.10;1.00
5218;DHT22;26539;51.064;6.346;2023-12-14T00:40:12;10.10;1.00
5218;DHT22;26539;51.064;6.346;2023-12-14T00:42:37;10.10;1.00
5218;DHT22;26539;51.064;6.346;2023-12-14T00:45:03;10.10;1.00
5218;DHT22;26539;51.064;6.346;2023-12-14T00:47:29;10.10;1.00
5218;DHT22;26539;51.064;6.346;2023-12-14T00:49:54;10.10;1.00
5218;DHT22;26539;51.064;6.346;2023-12-14T00:52:20;10.10;1.00
5218;DHT22;26539;51.064;6.346;2023-12-14T00:54:45;10.10;1.00
5218;DHT22;26539;51.064;6.346;2023-12-14T00:57:11;10.00;1.00
5218;DHT22;26539;51.064;6.346;2023-12-14T00:59:36;10.00;1.00
5218;DHT22;26539;51.064;6.346;2023-12-14T01:02:02;10.00;1.00
5218;DHT22;26539;51.064;6.346;2023-12-14T01:04:27;10.00;1.00
5218;DHT22;26539;51.064;6.346;2023-12-14T01:06:53;10.00;1.00
5218;DHT22;26539;51.064;6.346;2023-12-14T01:09:18;10.00;1.00
5218;DHT22;26539;51.064;6.346;2023-12-14T01:11:44;10.10;1.00
5218;DHT22;26539;51.064;6.346;2023-12-14T01:14:09;10.10;1.00
5218;DHT22;26539;51.064;6.346;2023-12-14T01:16:35;10.00;1.00
5218;DHT22;26539;51.064;6.346;2023-12-14T01:19:00;10.00;1.00
5218;DHT22;26539;51.064;6.346;2023-12-14T01:21:26;10.00;1.00
5218;DHT22;26539;51.064;6.346;2023-12-14T01:23:51;10.00;1.00
5218;DHT22;26539;51.064;6.346;2023-12-14T01:26:17;10.00;1.00
5218;DHT22;26539;51.064;6.346;2023-12-14T01:28:43;9.90;1.00
5218;DHT22;26539;51.064;6.346;2023-12-14T01:31:09;9.90;1.00
5218;DHT22;26539;51.064;6.346;2023-12-14T01:33:34;9.90;1.00
5218;DHT22;26539;51.064;6.346;2023-12-14T01:36:00;9.90;1.00
5218;DHT22;26539;51.064;6.346;2023-12-14T01:38:25;9.90;1.00
5218;DHT22;26539;51.064;6.346;2023-12-14T01:40:51;9.90;1.00
5218;DHT22;26539;51.064;6.346;2023-12-14T01:43:16;9.90;1.00
5218;DHT22;26539;51.064;6.346;2023-12-14T01:45:42;9.80;1.00
5218;DHT22;26539;51.064;6.346;2023-12-14T01:48:07;9.80;1.00
5218;DHT22;26539;51.064;6.346;2023-12-14T01:50:33;9.80;1.00
5218;DHT22;26539;51.064;6.346;2023-12-14T01:52:58;9.80;1.00
5218;DHT22;26539;51.064;6.346;2023-12-14T01:55:24;9.80;1.00
5218;DHT22;26539;51.064;6.346;2023-12-14T01:57:51;9.80;1.00
5218;DHT22;26539;51.064;6.346;2023-12-14T02:00:29;9.70;1.00
5218;DHT22;26539;51.064;6.346;2023-12-14T02:03:00;9.70;1.00
5218;DHT22;26539;51.064;6.346;2023-12-14T02:05:25;9.70;1.00
5218;DHT22;26539;51.064;6.346;2023-12-14T02:07:51;9.70;1.00
5218;DHT22;26539;51.064;6.346;2023-12-14T02:10:16;9.70;1.00
5218;DHT22;26539;51.064;6.346;2023-12-14T02:12:42;9.60;1.00
5218;DHT22;26539;51.064;6.346;2023-12-14T02:15:07;9.60;1.00
5218;DHT22;26539;51.064;6.346;2023-12-14T02:17:34;9.50;1.00
5218;DHT22;26539;51.064;6.346;2023-12-14T02:19:59;9.50;1.00
5218;DHT22;26539;51.064;6.346;2023-12-14T02:22:26;9.50;1.00
5218;DHT22;26539;51.064;6.346;2023-12-14T02:24:52;9.40;1.00
5218;DHT22;26539;51.064;6.346;2023-12-14T02:27:17;9.40;1.00
5218;DHT22;26539;51.064;6.346;2023-12-14T02:29:43;9.40;1.00
5218;DHT22;26539;51.064;6.346;2023-12-14T02:32:08;9.30;1.00
5218;DHT22;26539;51.064;6.346;2023-12-14T02:34:34;9.40;1.00
5218;DHT22;26539;51.064;6.346;2023-12-14T02:36:59;9.30;1.00
5218;DHT22;26539;51.064;6.346;2023-12-14T02:39:25;9.30;1.00
5218;DHT22;26539;51.064;6.346;2023-12-14T02:41:50;9.30;1.00
5218;DHT22;26539;51.064;6.346;2023-12-14T02:44:16;9.30;1.00
5218;DHT22;26539;51.064;6.346;2023-12-14T02:46:41;9.20;1.00
5218;DHT22;26539;51.064;6.346;2023-12-14T02:49:06;9.20;1.00
5218;DHT22;26539;51.064;6.346;2023-12-14T02:51:32;9.20;1.00
5218;DHT22;26539;51.064;6.346;2023-12-14T02:53:57;9.20;1.00
5218;DHT22;26539;51.064;6.346;2023-12-14T02:56:23;9.20;1.00
5218;DHT22;26539;51.064;6.346;2023-12-14T02:58:49;9.20;1.00
5218;DHT22;26539;51.064;6.346;2023-12-14T03:01:19;9.20;1.00
5218;DHT22;26539;51.064;6.346;2023-12-14T03:03:45;9.20;1.00
5218;DHT22;26539;51.064;6.346;2023-12-14T03:06:11;9.20;1.00
5218;DHT22;26539;51.064;6.346;2023-12-14T03:08:36;9.20;1.00
5218;DHT22;26539;51.064;6.346;2023-12-14T03:11:02;9.10;1.00
5218;DHT22;26539;51.064;6.346;2023-12-14T03:13:28;9.10;1.00
5218;DHT22;26539;51.064;6.346;2023-12-14T03:15:54;9.10;1.00
5218;DHT22;26539;51.064;6.346;2023-12-14T03:18:19;9.10;1.00
5218;DHT22;26539;51.064;6.346;2023-12-14T03:20:44;9.10;1.00
5218;DHT22;26539;51.064;6.346;2023-12-14T03:23:10;9.10;1.00
5218;DHT22;26539;51.064;6.346;2023-12-14T03:25:35;9.00;1.00
5218;DHT22;26539;51.064;6.346;2023-12-14T03:28:01;9.00;1.00
5218;DHT22;26539;51.064;6.346;2023-12-14T03:30:26;9.10;1.00
5218;DHT22;26539;51.064;6.346;2023-12-14T03:32:52;9.00;1.00
5218;DHT22;26539;51.064;6.346;2023-12-14T03:35:18;9.00;1.00
5218;DHT22;26539;51.064;6.346;2023-12-14T03:37:43;9.00;1.00
5218;DHT22;26539;51.064;6.346;2023-12-14T03:40:09;9.00;1.00
5218;DHT22;26539;51.064;6.346;2023-12-14T03:42:35;9.00;1.00
5218;DHT22;26539;51.064;6.346;2023-12-14T03:45:00;9.00;1.00
5218;DHT22;26539;51.064;6.346;2023-12-14T03:47:26;9.00;1.00
5218;DHT22;26539;51.064;6.346;2023-12-14T03:49:51;8.90;1.00
5218;DHT22;26539;51.064;6.346;2023-12-14T03:52:17;8.90;1.00
5218;DHT22;26539;51.064;6.346;2023-12-14T03:54:43;8.90;1.00
5218;DHT22;26539;51.064;6.346;2023-12-14T03:57:09;8.90;1.00
5218;DHT22;26539;51.064;6.346;2023-12-14T03:59:38;8.90;1.00
5218;DHT22;26539;51.064;6.346;2023-12-14T04:02:04;8.90;1.00
5218;DHT22;26539;51.064;6.346;2023-12-14T04:04:29;8.90;1.00
5218;DHT22;26539;51.064;6.346;2023-12-14T04:06:55;8.90;1.00
5218;DHT22;26539;51.064;6.346;2023-12-14T04:09:21;8.90;1.00
5218;DHT22;26539;51.064;6.346;2023-12-14T04:11:46;8.90;1.00
5218;DHT22;26539;51.064;6.346;2023-12-14T04:14:12;8.80;1.00
5218;DHT22;26539;51.064;6.346;2023-12-14T04:16:37;8.80;1.00
5218;DHT22;26539;51.064;6.346;2023-12-14T04:19:03;8.80;1.00
5218;DHT22;26539;51.064;6.346;2023-12-14T04:21:28;8.80;1.00
5218;DHT22;26539;51.064;6.346;2023-12-14T04:23:54;8.80;1.00
5218;DHT22;26539;51.064;6.346;2023-12-14T04:26:19;8.80;1.00
5218;DHT22;26539;51.064;6.346;2023-12-14T04:28:45;8.80;1.00
5218;DHT22;26539;51.064;6.346;2023-12-14T04:31:11;8.80;1.00
5218;DHT22;26539;51.064;6.346;2023-12-14T04:33:37;8.80;1.00
5218;DHT22;26539;51.064;6.346;2023-12-14T04:36:03;8.70;1.00
5218;DHT22;26539;51.064;6.346;2023-12-14T04:38:28;8.70;1.00
5218;DHT22;26539;51.064;6.346;2023-12-14T04:40:54;8.60;1.00
5218;DHT22;26539;51.064;6.346;2023-12-14T04:43:19;8.60;1.00
5218;DHT22;26539;51.064;6.346;2023-12-14T04:45:45;8.60;1.00
5218;DHT22;26539;51.064;6.346;2023-12-14T04:48:10;8.50;1.00
5218;DHT22;26539;51.064;6.346;2023-12-14T04:50:36;8.50;1.00
5218;DHT22;26539;51.064;6.346;2023-12-14T04:53:01;8.40;1.00
5218;DHT22;26539;51.064;6.346;2023-12-14T04:55:27;8.50;1.00
5218;DHT22;26539;51.064;6.346;2023-12-14T04:57:52;8.50;1.00
5218;DHT22;26539;51.064;6.346;2023-12-14T05:00:18;8.50;1.00
5218;DHT22;26539;51.064;6.346;2023-12-14T05:02:47;8.50;1.00
5218;DHT22;26539;51.064;6.346;2023-12-14T05:05:14;8.50;1.00
5218;DHT22;26539;51.064;6.346;2023-12-14T05:07:39;8.50;1.00
5218;DHT22;26539;51.064;6.346;2023-12-14T05:10:05;8.60;1.00
5218;DHT22;26539;51.064;6.346;2023-12-14T05:12:31;8.50;1.00
5218;DHT22;26539;51.064;6.346;2023-12-14T05:14:57;8.60;1.00
5218;DHT22;26539;51.064;6.346;2023-12-14T05:17:22;8.60;1.00
5218;DHT22;26539;51.064;6.346;2023-12-14T05:19:48;8.60;1.00
5218;DHT22;26539;51.064;6.346;2023-12-14T05:22:13;8.60;1.00
5218;DHT22;26539;51.064;6.346;2023-12-14T05:24:39;8.60;1.00
5218;DHT22;26539;51.064;6.346;2023-12-14T05:27:04;8.60;1.00
5218;DHT22;26539;51.064;6.346;2023-12-14T05:29:33;8.60;1.00
5218;DHT22;26539;51.064;6.346;2023-12-14T05:32:01;8.60;1.00
5218;DHT22;26539;51.064;6.346;2023-12-14T05:34:26;8.60;1.00
5218;DHT22;26539;51.064;6.346;2023-12-14T05:36:52;8.60;1.00
5218;DHT22;26539;51.064;6.346;2023-12-14T05:39:17;8.60;1.00
5218;DHT22;26539;51.064;6.346;2023-12-14T05:41:44;8.60;1.00
5218;DHT22;26539;51.064;6.346;2023-12-14T05:44:09;8.60;1.00
5218;DHT22;26539;51.064;6.346;2023-12-14T05:46:35;8.60;1.00
5218;DHT22;26539;51.064;6.346;2023-12-14T05:49:01;8.50;1.00
5218;DHT22;26539;51.064;6.346;2023-12-14T05:51:30;8.50;1.00
5218;DHT22;26539;51.064;6.346;2023-12-14T05:53:56;8.40;1.00
5218;DHT22;26539;51.064;6.346;2023-12-14T05:56:22;8.40;1.00
5218;DHT22;26539;51.064;6.346;2023-12-14T05:58:48;8.40;1.00
5218;DHT22;26539;51.064;6.346;2023-12-14T06:01:16;8.40;1.00
5218;DHT22;26539;51.064;6.346;2023-12-14T06:03:42;8.30;1.00
5218;DHT22;26539;51.064;6.346;2023-12-14T06:06:08;8.30;1.00
5218;DHT22;26539;51.064;6.346;2023-12-14T06:08:35;8.20;1.00
5218;DHT22;26539;51.064;6.346;2023-12-14T06:11:01;8.20;1.00
5218;DHT22;26539;51.064;6.346;2023-12-14T06:13:26;8.10;1.00
5218;DHT22;26539;51.064;6.346;2023-12-14T06:15:52;8.10;1.00
5218;DHT22;26539;51.064;6.346;2023-12-14T06:18:17;8.00;1.00
5218;DHT22;26539;51.064;6.346;2023-12-14T06:20:43;7.90;1.00
5218;DHT22;26539;51.064;6.346;2023-12-14T06:23:09;7.80;1.00
5218;DHT22;26539;51.064;6.346;2023-12-14T06:25:34;7.80;1.00
5218;DHT22;26539;51.064;6.346;2023-12-14T06:28:00;7.80;1.00
5218;DHT22;26539;51.064;6.346;2023-12-14T06:30:25;7.80;1.00
5218;DHT22;26539;51.064;6.346;2023-12-14T06:32:50;7.80;1.00
5218;DHT22;26539;51.064;6.346;2023-12-14T06:35:16;7.70;1.00
5218;DHT22;26539;51.064;6.346;2023-12-14T06:37:41;7.70;1.00
5218;DHT22;26539;51.064;6.346;2023-12-14T06:40:08;7.70;1.00
5218;DHT22;26539;51.064;6.346;2023-12-14T06:42:34;7.60;1.00
5218;DHT22;26539;51.064;6.346;2023-12-14T06:45:01;7.60;1.00
5218;DHT22;26539;51.064;6.346;2023-12-14T06:47:28;7.60;1.00
5218;DHT22;26539;51.064;6.346;2023-12-14T06:49:53;7.60;1.00
5218;DHT22;26539;51.064;6.346;2023-12-14T06:52:19;7.60;1.00
5218;DHT22;26539;51.064;6.346;2023-12-14T06:54:48;7.50;1.00
5218;DHT22;26539;51.064;6.346;2023-12-14T06:57:14;7.50;1.00
5218;DHT22;26539;51.064;6.346;2023-12-14T06:59:39;7.50;1.00
5218;DHT22;26539;51.064;6.346;2023-12-14T07:02:06;7.50;1.00
5218;DHT22;26539;51.064;6.346;2023-12-14T07:04:31;7.50;1.00
5218;DHT22;26539;51.064;6.346;2023-12-14T07:06:57;7.50;1.00
5218;DHT22;26539;51.064;6.346;2023-12-14T07:09:24;7.50;1.00
5218;DHT22;26539;51.064;6.346;2023-12-14T07:11:49;7.50;1.00
5218;DHT22;26539;51.064;6.346;2023-12-14T07:14:15;7.40;1.00
5218;DHT22;26539;51.064;6.346;2023-12-14T07:16:44;7.30;1.00
5218;DHT22;26539;51.064;6.346;2023-12-14T07:19:09;7.30;1.00
5218;DHT22;26539;51.064;6.346;2023-12-14T07:21:36;7.30;1.00
5218;DHT22;26539;51.064;6.346;2023-12-14T07:24:02;7.30;1.00
5218;DHT22;26539;51.064;6.346;2023-12-14T07:26:30;7.30;1.00
5218;DHT22;26539;51.064;6.346;2023-12-14T07:28:55;7.40;1.00
5218;DHT22;26539;51.064;6.346;2023-12-14T07:31:21;7.30;1.00
5218;DHT22;26539;51.064;6.346;2023-12-14T07:33:46;7.40;1.00
5218;DHT22;26539;51.064;6.346;2023-12-14T07:36:12;7.40;1.00
5218;DHT22;26539;51.064;6.346;2023-12-14T07:38:37;7.50;1.00
5218;DHT22;26539;51.064;6.346;2023-12-14T07:41:03;7.50;1.00
5218;DHT22;26539;51.064;6.346;2023-12-14T07:43:29;7.60;1.00
5218;DHT22;26539;51.064;6.346;2023-12-14T07:45:54;7.60;1.00
5218;DHT22;26539;51.064;6.346;2023-12-14T07:48:20;7.60;1.00
5218;DHT22;26539;51.064;6.346;2023-12-14T07:50:45;7.60;1.00
5218;DHT22;26539;51.064;6.346;2023-12-14T07:53:13;7.70;1.00
5218;DHT22;26539;51.064;6.346;2023-12-14T07:55:39;7.70;1.00
5218;DHT22;26539;51.064;6.346;2023-12-14T07:58:04;7.80;1.00
5218;DHT22;26539;51.064;6.346;2023-12-14T08:00:30;7.80;1.00
5218;DHT22;26539;51.064;6.346;2023-12-14T08:02:55;7.80;1.00
5218;DHT22;26539;51.064;6.346;2023-12-14T08:05:21;7.80;1.00
5218;DHT22;26539;51.064;6.346;2023-12-14T08:07:46;7.80;1.00
5218;DHT22;26539;51.064;6.346;2023-12-14T08:10:13;7.90;1.00
5218;DHT22;26539;51.064;6.346;2023-12-14T08:12:38;7.90;1.00
5218;DHT22;26539;51.064;6.346;2023-12-14T08:15:04;7.80;1.00
5218;DHT22;26539;51.064;6.346;2023-12-14T08:17:30;7.70;1.00
5218;DHT22;26539;51.064;6.346;2023-12-14T08:19:55;7.80;1.00
5218;DHT22;26539;51.064;6.346;2023-12-14T08:22:21;7.80;1.00
5218;DHT22;26539;51.064;6.346;2023-12-14T08:24:48;7.80;1.00
5218;DHT22;26539;51.064;6.346;2023-12-14T08:27:13;7.80;1.00
5218;DHT22;26539;51.064;6.346;2023-12-14T08:29:39;7.80;1.00
5218;DHT22;26539;51.064;6.346;2023-12-14T08:32:04;7.80;1.00
5218;DHT22;26539;51.064;6.346;2023-12-14T08:34:30;7.70;1.00
5218;DHT22;26539;51.064;6.346;2023-12-14T08:36:56;7.70;1.00
5218;DHT22;26539;51.064;6.346;2023-12-14T08:39:21;7.80;1.00
5218;DHT22;26539;51.064;6.346;2023-12-14T08:41:47;7.80;1.00
5218;DHT22;26539;51.064;6.346;2023-12-14T08:44:14;7.80;1.00
5218;DHT22;26539;51.064;6.346;2023-12-14T08:46:45;7.70;1.00
5218;DHT22;26539;51.064;6.346;2023-12-14T08:49:11;7.70;1.00
5218;DHT22;26539;51.064;6.346;2023-12-14T08:51:37;7.70;1.00
5218;DHT22;26539;51.064;6.346;2023-12-14T08:54:03;7.70;1.00
5218;DHT22;26539;51.064;6.346;2023-12-14T08:56:29;7.70;1.00
5218;DHT22;26539;51.064;6.346;2023-12-14T08:58:55;7.80;1.00
5218;DHT22;26539;51.064;6.346;2023-12-14T09:01:21;7.80;1.00
5218;DHT22;26539;51.064;6.346;2023-12-14T09:03:47;7.80;1.00
5218;DHT22;26539;51.064;6.346;2023-12-14T09:06:12;7.80;1.00
5218;DHT22;26539;51.064;6.346;2023-12-14T09:08:38;7.80;1.00
5218;DHT22;26539;51.064;6.346;2023-12-14T09:11:05;7.80;1.00
5218;DHT22;26539;51.064;6.346;2023-12-14T09:13:30;7.70;1.00
5218;DHT22;26539;51.064;6.346;2023-12-14T09:15:56;7.70;1.00
5218;DHT22;26539;51.064;6.346;2023-12-14T09:18:21;7.70;1.00
5218;DHT22;26539;51.064;6.346;2023-12-14T09:20:48;7.70;1.00
5218;DHT22;26539;51.064;6.346;2023-12-14T09:23:15;7.70;1.00
5218;DHT22;26539;51.064;6.346;2023-12-14T09:25:41;7.80;1.00
5218;DHT22;26539;51.064;6.346;2023-12-14T09:28:06;7.90;1.00
5218;DHT22;26539;51.064;6.346;2023-12-14T09:30:32;7.90;1.00
5218;DHT22;26539;51.064;6.346;2023-12-14T09:32:58;8.00;1.00
5218;DHT22;26539;51.064;6.346;2023-12-14T09:35:23;8.10;1.00
5218;DHT22;26539;51.064;6.346;2023-12-14T09:37:49;8.00;1.00
5218;DHT22;26539;51.064;6.346;2023-12-14T09:40:15;8.10;1.00
5218;DHT22;26539;51.064;6.346;2023-12-14T09:42:42;8.20;1.00
5218;DHT22;26539;51.064;6.346;2023-12-14T09:45:08;8.20;1.00
5218;DHT22;26539;51.064;6.346;2023-12-14T09:47:37;8.30;1.00
5218;DHT22;26539;51.064;6.346;2023-12-14T09:50:04;8.30;99.90
5218;DHT22;26539;51.064;6.346;2023-12-14T09:52:30;8.30;99.90
5218;DHT22;26539;51.064;6.346;2023-12-14T09:54:56;8.20;99.90
5218;DHT22;26539;51.064;6.346;2023-12-14T09:57:22;8.00;99.90
5218;DHT22;26539;51.064;6.346;2023-12-14T09:59:52;8.00;99.90
5218;DHT22;26539;51.064;6.346;2023-12-14T10:02:18;7.90;99.90
5218;DHT22;26539;51.064;6.346;2023-12-14T10:04:43;7.80;99.90
5218;DHT22;26539;51.064;6.346;2023-12-14T10:07:09;7.70;99.90
5218;DHT22;26539;51.064;6.346;2023-12-14T10:09:36;7.60;1.00
5218;DHT22;26539;51.064;6.346;2023-12-14T10:12:04;7.60;1.00
5218;DHT22;26539;51.064;6.346;2023-12-14T10:14:31;7.50;1.00
5218;DHT22;26539;51.064;6.346;2023-12-14T10:16:56;7.40;1.00
5218;DHT22;26539;51.064;6.346;2023-12-14T10:19:22;7.40;1.00
5218;DHT22;26539;51.064;6.346;2023-12-14T10:21:48;7.40;1.00
5218;DHT22;26539;51.064;6.346;2023-12-14T10:24:14;7.50;1.00
5218;DHT22;26539;51.064;6.346;2023-12-14T10:26:40;7.60;1.00
5218;DHT22;26539;51.064;6.346;2023-12-14T10:29:06;7.60;1.00
5218;DHT22;26539;51.064;6.346;2023-12-14T10:31:32;7.60;1.00
5218;DHT22;26539;51.064;6.346;2023-12-14T10:34:05;7.50;1.00
5218;DHT22;26539;51.064;6.346;2023-12-14T10:36:31;7.50;1.00
5218;DHT22;26539;51.064;6.346;2023-12-14T10:38:58;7.50;1.00
5218;DHT22;26539;51.064;6.346;2023-12-14T10:41:24;7.60;1.00
5218;DHT22;26539;51.064;6.346;2023-12-14T10:43:53;7.70;1.00
5218;DHT22;26539;51.064;6.346;2023-12-14T10:46:20;7.80;1.00
5218;DHT22;26539;51.064;6.346;2023-12-14T10:48:52;7.80;1.00
5218;DHT22;26539;51.064;6.346;2023-12-14T10:51:20;7.90;1.00
5218;DHT22;26539;51.064;6.346;2023-12-14T10:53:46;7.90;1.00
5218;DHT22;26539;51.064;6.346;2023-12-14T10:56:13;7.90;99.90
5218;DHT22;26539;51.064;6.346;2023-12-14T10:58:57;7.80;99.90
5218;DHT22;26539;51.064;6.346;2023-12-14T11:01:24;7.80;99.90
5218;DHT22;26539;51.064;6.346;2023-12-14T11:03:53;7.90;1.00
5218;DHT22;26539;51.064;6.346;2023-12-14T11:06:28;8.00;99.90
5218;DHT22;26539;51.064;6.346;2023-12-14T11:08:57;8.00;99.90
5218;DHT22;26539;51.064;6.346;2023-12-14T11:11:28;8.10;99.90
5218;DHT22;26539;51.064;6.346;2023-12-14T11:13:53;8.30;99.90
5218;DHT22;26539;51.064;6.346;2023-12-14T11:16:26;8.30;99.90
5218;DHT22;26539;51.064;6.346;2023-12-14T11:19:26;8.30;99.90
5218;DHT22;26539;51.064;6.346;2023-12-14T11:24:23;8.50;99.90
5218;DHT22;26539;51.064;6.346;2023-12-14T11:26:49;8.50;99.90
5218;DHT22;26539;51.064;6.346;2023-12-14T11:29:15;8.60;99.90
5218;DHT22;26539;51.064;6.346;2023-12-14T11:31:42;8.60;1.00
5218;DHT22;26539;51.064;6.346;2023-12-14T11:34:07;8.60;1.00
5218;DHT22;26539;51.064;6.346;2023-12-14T11:36:33;8.60;1.00
5218;DHT22;26539;51.064;6.346;2023-12-14T11:38:58;8.60;1.00
5218;DHT22;26539;51.064;6.346;2023-12-14T11:41:24;8.60;1.00
5218;DHT22;26539;51.064;6.346;2023-12-14T11:43:51;8.60;1.00
5218;DHT22;26539;51.064;6.346;2023-12-14T11:46:16;8.60;1.00
5218;DHT22;26539;51.064;6.346;2023-12-14T11:48:46;8.60;1.00
5218;DHT22;26539;51.064;6.346;2023-12-14T11:51:15;8.60;99.90
5218;DHT22;26539;51.064;6.346;2023-12-14T11:53:46;8.60;99.90
5218;DHT22;26539;51.064;6.346;2023-12-14T11:56:14;8.60;99.90
5218;DHT22;26539;51.064;6.346;2023-12-14T11:58:43;8.60;31.20
5218;DHT22;26539;51.064;6.346;2023-12-14T12:01:16;8.50;1.00
5218;DHT22;26539;51.064;6.346;2023-12-14T12:03:42;8.50;99.90
5218;DHT22;26539;51.064;6.346;2023-12-14T12:06:25;8.60;99.90
5218;DHT22;26539;51.064;6.346;2023-12-14T12:08:51;8.70;99.90
5218;DHT22;26539;51.064;6.346;2023-12-14T12:11:18;8.60;1.00
5218;DHT22;26539;51.064;6.346;2023-12-14T12:13:44;8.70;95.70
5218;DHT22;26539;51.064;6.346;2023-12-14T12:16:09;8.60;99.90
5218;DHT22;26539;51.064;6.346;2023-12-14T12:18:35;8.60;99.90
5218;DHT22;26539;51.064;6.346;2023-12-14T12:21:00;8.50;1.00
5218;DHT22;26539;51.064;6.346;2023-12-14T12:23:29;8.50;99.90
5218;DHT22;26539;51.064;6.346;2023-12-14T12:25:55;8.40;1.00
5218;DHT22;26539;51.064;6.346;2023-12-14T12:28:21;8.30;99.20
5218;DHT22;26539;51.064;6.346;2023-12-14T12:30:47;8.10;1.00
5218;DHT22;26539;51.064;6.346;2023-12-14T12:33:13;8.00;1.00
5218;DHT22;26539;51.064;6.346;2023-12-14T12:35:38;8.00;1.00
5218;DHT22;26539;51.064;6.346;2023-12-14T12:38:04;7.90;65.50
5218;DHT22;26539;51.064;6.346;2023-12-14T12:40:29;7.90;99.90
5218;DHT22;26539;51.064;6.346;2023-12-14T12:42:59;7.90;99.90
5218;DHT22;26539;51.064;6.346;2023-12-14T12:45:24;7.90;1.00
5218;DHT22;26539;51.064;6.346;2023-12-14T12:47:53;7.90;1.00
5218;DHT22;26539;51.064;6.346;2023-12-14T12:50:19;7.90;1.00
5218;DHT22;26539;51.064;6.346;2023-12-14T12:52:45;7.80;99.90
5218;DHT22;26539;51.064;6.346;2023-12-14T12:55:14;7.70;1.00
5218;DHT22;26539;51.064;6.346;2023-12-14T12:57:40;7.60;1.00
5218;DHT22;26539;51.064;6.346;2023-12-14T13:00:07;7.70;72.30
5218;DHT22;26539;51.064;6.346;2023-12-14T13:02:39;7.60;99.90
5218;DHT22;26539;51.064;6.346;2023-12-14T13:05:09;7.60;99.90
5218;DHT22;26539;51.064;6.346;2023-12-14T13:07:35;7.60;57.30
5218;DHT22;26539;51.064;6.346;2023-12-14T13:10:06;7.60;32.90
5218;DHT22;26539;51.064;6.346;2023-12-14T13:12:32;7.60;99.90
5218;DHT22;26539;51.064;6.346;2023-12-14T13:14:59;7.60;91.30
5218;DHT22;26539;51.064;6.346;2023-12-14T13:17:24;7.60;99.90
5218;DHT22;26539;51.064;6.346;2023-12-14T13:19:51;7.50;99.90
5218;DHT22;26539;51.064;6.346;2023-12-14T13:22:17;7.40;93.10
5218;DHT22;26539;51.064;6.346;2023-12-14T13:24:43;7.30;99.90
5218;DHT22;26539;51.064;6.346;2023-12-14T13:27:08;7.30;99.90
5218;DHT22;26539;51.064;6.346;2023-12-14T13:29:34;7.30;99.90
5218;DHT22;26539;51.064;6.346;2023-12-14T13:32:00;7.20;99.90
5218;DHT22;26539;51.064;6.346;2023-12-14T13:34:26;7.30;1.00
5218;DHT22;26539;51.064;6.346;2023-12-14T13:36:53;7.30;99.90
5218;DHT22;26539;51.064;6.346;2023-12-14T13:39:19;7.30;99.90
5218;DHT22;26539;51.064;6.346;2023-12-14T13:41:45;7.40;99.90
5218;DHT22;26539;51.064;6.346;2023-12-14T13:44:10;7.40;99.90
5218;DHT22;26539;51.064;6.346;2023-12-14T13:46:36;7.50;99.90
5218;DHT22;26539;51.064;6.346;2023-12-14T13:49:01;7.50;99.90
5218;DHT22;26539;51.064;6.346;2023-12-14T13:51:27;7.50;99.90
5218;DHT22;26539;51.064;6.346;2023-12-14T13:53:53;7.50;99.90
5218;DHT22;26539;51.064;6.346;2023-12-14T13:56:18;7.60;99.90
5218;DHT22;26539;51.064;6.346;2023-12-14T13:58:44;7.50;99.90
5218;DHT22;26539;51.064;6.346;2023-12-14T14:01:09;7.50;99.90
5218;DHT22;26539;51.064;6.346;2023-12-14T14:03:35;7.60;99.90
5218;DHT22;26539;51.064;6.346;2023-12-14T14:06:03;7.60;99.90
5218;DHT22;26539;51.064;6.346;2023-12-14T14:08:29;7.50;99.90
5218;DHT22;26539;51.064;6.346;2023-12-14T14:10:57;7.50;99.90
5218;DHT22;26539;51.064;6.346;2023-12-14T14:13:22;7.60;99.90
5218;DHT22;26539;51.064;6.346;2023-12-14T14:15:48;7.60;99.90
5218;DHT22;26539;51.064;6.346;2023-12-14T14:18:13;7.60;99.90
5218;DHT22;26539;51.064;6.346;2023-12-14T14:20:39;7.60;99.90
5218;DHT22;26539;51.064;6.346;2023-12-14T14:23:05;7.60;18.70
5218;DHT22;26539;51.064;6.346;2023-12-14T14:25:30;7.60;24.80
5218;DHT22;26539;51.064;6.346;2023-12-14T14:27:56;7.50;1.00
5218;DHT22;26539;51.064;6.346;2023-12-14T14:30:22;7.50;13.10
5218;DHT22;26539;51.064;6.346;2023-12-14T14:32:48;7.40;99.90
5218;DHT22;26539;51.064;6.346;2023-12-14T14:35:13;7.30;99.90
5218;DHT22;26539;51.064;6.346;2023-12-14T14:37:39;7.30;99.90
5218;DHT22;26539;51.064;6.346;2023-12-14T14:40:10;7.30;99.90
5218;DHT22;26539;51.064;6.346;2023-12-14T14:42:36;7.20;99.90
5218;DHT22;26539;51.064;6.346;2023-12-14T14:45:02;7.20;99.90
5218;DHT22;26539;51.064;6.346;2023-12-14T14:47:27;7.20;99.90
5218;DHT22;26539;51.064;6.346;2023-12-14T14:49:53;7.20;99.90
5218;DHT22;26539;51.064;6.346;2023-12-14T14:52:22;7.30;99.90
5218;DHT22;26539;51.064;6.346;2023-12-14T14:54:48;7.30;99.90
5218;DHT22;26539;51.064;6.346;2023-12-14T14:57:14;7.30;99.90
5218;DHT22;26539;51.064;6.346;2023-12-14T14:59:39;7.30;99.90
5218;DHT22;26539;51.064;6.346;2023-12-14T15:02:05;7.40;99.90
5218;DHT22;26539;51.064;6.346;2023-12-14T15:04:30;7.30;99.90
5218;DHT22;26539;51.064;6.346;2023-12-14T15:06:57;7.30;99.90
5218;DHT22;26539;51.064;6.346;2023-12-14T15:09:23;7.30;99.90
5218;DHT22;26539;51.064;6.346;2023-12-14T15:11:48;7.30;99.90
5218;DHT22;26539;51.064;6.346;2023-12-14T15:14:14;7.20;99.90
5218;DHT22;26539;51.064;6.346;2023-12-14T15:16:40;7.20;76.90
5218;DHT22;26539;51.064;6.346;2023-12-14T15:19:05;7.10;99.90
5218;DHT22;26539;51.064;6.346;2023-12-14T15:21:31;7.10;99.90
5218;DHT22;26539;51.064;6.346;2023-12-14T15:23:56;7.00;1.00
5218;DHT22;26539;51.064;6.346;2023-12-14T15:26:22;7.00;1.00
5218;DHT22;26539;51.064;6.346;2023-12-14T15:28:47;6.90;1.00
5218;DHT22;26539;51.064;6.346;2023-12-14T15:31:13;6.90;1.00
5218;DHT22;26539;51.064;6.346;2023-12-14T15:33:39;6.80;1.00
5218;DHT22;26539;51.064;6.346;2023-12-14T15:36:05;6.90;1.00
5218;DHT22;26539;51.064;6.346;2023-12-14T15:38:30;6.90;1.00
5218;DHT22;26539;51.064;6.346;2023-12-14T15:40:56;6.80;1.00
5218;DHT22;26539;51.064;6.346;2023-12-14T15:43:21;6.80;13.80
5218;DHT22;26539;51.064;6.346;2023-12-14T15:45:47;6.70;54.30
5218;DHT22;26539;51.064;6.346;2023-12-14T15:48:13;6.70;99.90
5218;DHT22;26539;51.064;6.346;2023-12-14T15:50:39;6.70;99.90
5218;DHT22;26539;51.064;6.346;2023-12-14T15:53:05;6.70;99.90
5218;DHT22;26539;51.064;6.346;2023-12-14T15:55:33;6.70;99.90
5218;DHT22;26539;51.064;6.346;2023-12-14T15:57:59;6.70;99.90
5218;DHT22;26539;51.064;6.346;2023-12-14T16:00:25;6.70;99.90
5218;DHT22;26539;51.064;6.346;2023-12-14T16:02:50;6.60;99.90
5218;DHT22;26539;51.064;6.346;2023-12-14T16:05:16;6.60;99.90
5218;DHT22;26539;51.064;6.346;2023-12-14T16:07:41;6.60;99.90
5218;DHT22;26539;51.064;6.346;2023-12-14T16:10:07;6.50;99.90